Terminal Aerodrome Forecast
Issued by NWS

Home | Current Version | Previous Version | Text Only | Print | Product List | Glossary On
Versions: 1 2 3 4 5 6 7 8 9 10 11 12 13 14 15 16 17 18 19 20 21
356
FTUS43 KLOT 231727
TAFORD
TAF
KORD 231727Z 2318/2424 VRB04KT P6SM FEW250
     FM232000 09008KT P6SM FEW250
     FM240200 04006KT P6SM FEW250
     FM241400 12010KT P6SM FEW250=

USA.gov is the U.S. government's official web portal to all federal, state and local government web resources and services.